sensor_id;sensor_type;location;lat;lon;timestamp;pressure;altitude;pressure_sealevel;temperature
27826;BMP280;15077;49.704;9.908;2022-10-31T00:00:57;98621.78;;;18.03
27826;BMP280;15077;49.704;9.908;2022-10-31T00:03:23;98620.22;;;18.00
27826;BMP280;15077;49.704;9.908;2022-10-31T00:05:49;98627.19;;;17.98
27826;BMP280;15077;49.704;9.908;2022-10-31T00:08:16;98624.72;;;17.97
27826;BMP280;15077;49.704;9.908;2022-10-31T00:10:44;98627.47;;;17.94
27826;BMP280;15077;49.704;9.908;2022-10-31T00:13:10;98626.72;;;17.92
27826;BMP280;15077;49.704;9.908;2022-10-31T00:15:38;98636.78;;;17.95
27826;BMP280;15077;49.704;9.908;2022-10-31T00:18:05;98635.69;;;17.99
27826;BMP280;15077;49.704;9.908;2022-10-31T00:20:31;98625.25;;;18.02
27826;BMP280;15077;49.704;9.908;2022-10-31T00:23:00;98634.41;;;18.06
27826;BMP280;15077;49.704;9.908;2022-10-31T00:25:28;98638.63;;;18.07
27826;BMP280;15077;49.704;9.908;2022-10-31T00:27:54;98627.53;;;18.06
27826;BMP280;15077;49.704;9.908;2022-10-31T00:30:19;98629.09;;;18.09
27826;BMP280;15077;49.704;9.908;2022-10-31T00:32:45;98629.19;;;18.07
27826;BMP280;15077;49.704;9.908;2022-10-31T00:35:10;98636.06;;;18.07
27826;BMP280;15077;49.704;9.908;2022-10-31T00:37:36;98631.84;;;18.06
27826;BMP280;15077;49.704;9.908;2022-10-31T00:40:02;98633.69;;;18.04
27826;BMP280;15077;49.704;9.908;2022-10-31T00:42:27;98632.94;;;18.02
27826;BMP280;15077;49.704;9.908;2022-10-31T00:44:53;98639.91;;;18.00
27826;BMP280;15077;49.704;9.908;2022-10-31T00:47:19;98636.63;;;17.98
27826;BMP280;15077;49.704;9.908;2022-10-31T00:49:44;98636.78;;;17.95
27826;BMP280;15077;49.704;9.908;2022-10-31T00:52:10;98634.31;;;17.94
27826;BMP280;15077;49.704;9.908;2022-10-31T00:54:35;98631.84;;;17.92
27826;BMP280;15077;49.704;9.908;2022-10-31T00:57:01;98628.56;;;17.90
27826;BMP280;15077;49.704;9.908;2022-10-31T00:59:27;98628.66;;;17.89
27826;BMP280;15077;49.704;9.908;2022-10-31T01:01:52;98624.44;;;17.88
27826;BMP280;15077;49.704;9.908;2022-10-31T01:04:18;98620.34;;;17.85
27826;BMP280;15077;49.704;9.908;2022-10-31T01:06:43;98620.44;;;17.84
27826;BMP280;15077;49.704;9.908;2022-10-31T01:09:09;98620.53;;;17.82
27826;BMP280;15077;49.704;9.908;2022-10-31T01:11:35;98622.34;;;17.80
27826;BMP280;15077;49.704;9.908;2022-10-31T01:14:00;98618.25;;;17.78
27826;BMP280;15077;49.704;9.908;2022-10-31T01:16:26;98620.06;;;17.76
27826;BMP280;15077;49.704;9.908;2022-10-31T01:18:52;98616.69;;;17.75
27826;BMP280;15077;49.704;9.908;2022-10-31T01:21:20;98610.84;;;17.73
27826;BMP280;15077;49.704;9.908;2022-10-31T01:23:46;98613.50;;;17.72
27826;BMP280;15077;49.704;9.908;2022-10-31T01:26:16;98611.03;;;17.70
27826;BMP280;15077;49.704;9.908;2022-10-31T01:29:03;98610.38;;;17.67
27826;BMP280;15077;49.704;9.908;2022-10-31T01:31:31;98614.78;;;17.65
27826;BMP280;15077;49.704;9.908;2022-10-31T01:33:58;98606.44;;;17.61
27826;BMP280;15077;49.704;9.908;2022-10-31T01:36:35;98611.59;;;17.61
27826;BMP280;15077;49.704;9.908;2022-10-31T01:39:04;98615.97;;;17.59
27826;BMP280;15077;49.704;9.908;2022-10-31T01:41:32;98615.22;;;17.57
27826;BMP280;15077;49.704;9.908;2022-10-31T01:44:43;98617.88;;;17.56
27826;BMP280;15077;49.704;9.908;2022-10-31T01:49:59;98617.41;;;17.49
27826;BMP280;15077;49.704;9.908;2022-10-31T01:55:19;98617.78;;;17.44
27826;BMP280;15077;49.704;9.908;2022-10-31T01:57:48;98612.75;;;17.42
27826;BMP280;15077;49.704;9.908;2022-10-31T02:00:16;98611.22;;;17.40
27826;BMP280;15077;49.704;9.908;2022-10-31T02:02:42;98620.72;;;17.38
27826;BMP280;15077;49.704;9.908;2022-10-31T02:05:12;98621.66;;;17.37
27826;BMP280;15077;49.704;9.908;2022-10-31T02:07:45;98615.75;;;17.35
27826;BMP280;15077;49.704;9.908;2022-10-31T02:10:13;98608.25;;;17.32
27826;BMP280;15077;49.704;9.908;2022-10-31T02:12:39;98616.88;;;17.31
27826;BMP280;15077;49.704;9.908;2022-10-31T02:15:07;98614.41;;;17.29
27826;BMP280;15077;49.704;9.908;2022-10-31T02:17:33;98610.28;;;17.27
27826;BMP280;15077;49.704;9.908;2022-10-31T02:20:09;98611.19;;;17.26
27826;BMP280;15077;49.704;9.908;2022-10-31T02:26:31;98618.31;;;17.21
27826;BMP280;15077;49.704;9.908;2022-10-31T02:32:07;98613.53;;;17.15
27826;BMP280;15077;49.704;9.908;2022-10-31T02:37:34;98618.91;;;17.10
27826;BMP280;15077;49.704;9.908;2022-10-31T02:40:11;98620.75;;;17.08
27826;BMP280;15077;49.704;9.908;2022-10-31T02:42:46;98622.56;;;17.06
27826;BMP280;15077;49.704;9.908;2022-10-31T02:45:29;98625.22;;;17.05
27826;BMP280;15077;49.704;9.908;2022-10-31T02:48:00;98629.63;;;17.03
27826;BMP280;15077;49.704;9.908;2022-10-31T02:50:35;98619.47;;;17.01
27826;BMP280;15077;49.704;9.908;2022-10-31T02:53:03;98622.09;;;17.00
27826;BMP280;15077;49.704;9.908;2022-10-31T02:58:19;98625.66;;;16.98
27826;BMP280;15077;49.704;9.908;2022-10-31T03:01:02;98625.84;;;16.95
27826;BMP280;15077;49.704;9.908;2022-10-31T03:06:29;98614.97;;;16.91
27826;BMP280;15077;49.704;9.908;2022-10-31T03:09:33;98617.69;;;16.88
27826;BMP280;15077;49.704;9.908;2022-10-31T03:15:40;98618.69;;;16.86
27826;BMP280;15077;49.704;9.908;2022-10-31T03:17:35;98615.41;;;16.84
27826;BMP280;15077;49.704;9.908;2022-10-31T03:20:05;98616.31;;;16.83
27826;BMP280;15077;49.704;9.908;2022-10-31T03:22:33;98621.50;;;16.81
27826;BMP280;15077;49.704;9.908;2022-10-31T03:25:01;98615.56;;;16.81
27826;BMP280;15077;49.704;9.908;2022-10-31T03:27:31;98616.47;;;16.80
27826;BMP280;15077;49.704;9.908;2022-10-31T03:30:01;98621.69;;;16.78
27826;BMP280;15077;49.704;9.908;2022-10-31T03:35:23;98629.53;;;16.75
27826;BMP280;15077;49.704;9.908;2022-10-31T03:37:52;98622.75;;;16.74
27826;BMP280;15077;49.704;9.908;2022-10-31T03:40:21;98630.44;;;16.74
27826;BMP280;15077;49.704;9.908;2022-10-31T03:42:53;98627.97;;;16.73
27826;BMP280;15077;49.704;9.908;2022-10-31T03:45:28;98625.50;;;16.71
27826;BMP280;15077;49.704;9.908;2022-10-31T03:47:55;98623.00;;;16.70
27826;BMP280;15077;49.704;9.908;2022-10-31T03:50:24;98622.28;;;16.68
27826;BMP280;15077;49.704;9.908;2022-10-31T03:55:31;98625.84;;;16.65
27826;BMP280;15077;49.704;9.908;2022-10-31T03:58:02;98625.03;;;16.65
27826;BMP280;15077;49.704;9.908;2022-10-31T04:00:30;98624.28;;;16.63
27826;BMP280;15077;49.704;9.908;2022-10-31T04:03:05;98626.00;;;16.62
27826;BMP280;15077;49.704;9.908;2022-10-31T04:05:33;98625.28;;;16.60
27826;BMP280;15077;49.704;9.908;2022-10-31T04:08:01;98621.97;;;16.58
27826;BMP280;15077;49.704;9.908;2022-10-31T04:10:29;98622.91;;;16.57
27826;BMP280;15077;49.704;9.908;2022-10-31T04:13:01;98624.69;;;16.55
27826;BMP280;15077;49.704;9.908;2022-10-31T04:15:30;98623.97;;;16.53
27826;BMP280;15077;49.704;9.908;2022-10-31T04:17:58;98619.75;;;16.52
27826;BMP280;15077;49.704;9.908;2022-10-31T04:20:30;98621.56;;;16.51
27826;BMP280;15077;49.704;9.908;2022-10-31T04:22:56;98617.34;;;16.50
27826;BMP280;15077;49.704;9.908;2022-10-31T04:25:22;98616.63;;;16.48
27826;BMP280;15077;49.704;9.908;2022-10-31T04:27:47;98614.16;;;16.46
27826;BMP280;15077;49.704;9.908;2022-10-31T04:30:13;98616.81;;;16.45
27826;BMP280;15077;49.704;9.908;2022-10-31T04:32:38;98620.34;;;16.42
27826;BMP280;15077;49.704;9.908;2022-10-31T04:35:05;98619.63;;;16.40
27826;BMP280;15077;49.704;9.908;2022-10-31T04:37:30;98612.84;;;16.39
27826;BMP280;15077;49.704;9.908;2022-10-31T04:39:56;98615.47;;;16.38
27826;BMP280;15077;49.704;9.908;2022-10-31T04:42:22;98617.31;;;16.36
27826;BMP280;15077;49.704;9.908;2022-10-31T04:44:47;98622.44;;;16.36
27826;BMP280;15077;49.704;9.908;2022-10-31T04:47:13;98620.03;;;16.33
27826;BMP280;15077;49.704;9.908;2022-10-31T04:49:38;98620.13;;;16.31
27826;BMP280;15077;49.704;9.908;2022-10-31T04:52:04;98616.00;;;16.29
27826;BMP280;15077;49.704;9.908;2022-10-31T04:54:30;98616.91;;;16.28
27826;BMP280;15077;49.704;9.908;2022-10-31T04:56:55;98617.09;;;16.25
27826;BMP280;15077;49.704;9.908;2022-10-31T04:59:21;98617.16;;;16.23
27826;BMP280;15077;49.704;9.908;2022-10-31T05:01:46;98608.69;;;16.21
27826;BMP280;15077;49.704;9.908;2022-10-31T05:04:12;98606.22;;;16.20
27826;BMP280;15077;49.704;9.908;2022-10-31T05:06:38;98600.38;;;16.18
27826;BMP280;15077;49.704;9.908;2022-10-31T05:09:03;98605.59;;;16.16
27826;BMP280;15077;49.704;9.908;2022-10-31T05:11:29;98598.81;;;16.15
27826;BMP280;15077;49.704;9.908;2022-10-31T05:13:55;98605.75;;;16.13
27826;BMP280;15077;49.704;9.908;2022-10-31T05:16:20;98603.28;;;16.12
27826;BMP280;15077;49.704;9.908;2022-10-31T05:18:46;98613.50;;;16.12
27826;BMP280;15077;49.704;9.908;2022-10-31T05:21:11;98610.19;;;16.10
27826;BMP280;15077;49.704;9.908;2022-10-31T05:23:37;98604.44;;;16.06
27826;BMP280;15077;49.704;9.908;2022-10-31T05:26:03;98604.44;;;16.06
27826;BMP280;15077;49.704;9.908;2022-10-31T05:28:28;98605.41;;;16.04
27826;BMP280;15077;49.704;9.908;2022-10-31T05:30:54;98608.03;;;16.02
27826;BMP280;15077;49.704;9.908;2022-10-31T05:33:19;98597.00;;;16.02
27826;BMP280;15077;49.704;9.908;2022-10-31T05:35:45;98601.31;;;16.02
27826;BMP280;15077;49.704;9.908;2022-10-31T05:38:11;98598.84;;;16.00
27826;BMP280;15077;49.704;9.908;2022-10-31T05:40:36;98599.72;;;15.99
27826;BMP280;15077;49.704;9.908;2022-10-31T05:43:02;98601.47;;;15.99
27826;BMP280;15077;49.704;9.908;2022-10-31T05:45:27;98611.78;;;15.97
27826;BMP280;15077;49.704;9.908;2022-10-31T05:47:55;98603.25;;;15.97
27826;BMP280;15077;49.704;9.908;2022-10-31T05:50:21;98602.44;;;15.96
27826;BMP280;15077;49.704;9.908;2022-10-31T05:52:54;98595.69;;;15.95
27826;BMP280;15077;49.704;9.908;2022-10-31T05:55:19;98593.97;;;15.96
27826;BMP280;15077;49.704;9.908;2022-10-31T05:57:45;98594.88;;;15.95
27826;BMP280;15077;49.704;9.908;2022-10-31T06:00:11;98593.13;;;15.95
27826;BMP280;15077;49.704;9.908;2022-10-31T06:02:37;98599.97;;;15.95
27826;BMP280;15077;49.704;9.908;2022-10-31T06:05:03;98599.91;;;15.96
27826;BMP280;15077;49.704;9.908;2022-10-31T06:07:33;98603.34;;;15.95
27826;BMP280;15077;49.704;9.908;2022-10-31T06:09:59;98603.34;;;15.95
27826;BMP280;15077;49.704;9.908;2022-10-31T06:12:25;98606.75;;;15.96
27826;BMP280;15077;49.704;9.908;2022-10-31T06:14:51;98609.22;;;15.97
27826;BMP280;15077;49.704;9.908;2022-10-31T06:17:16;98604.13;;;15.97
27826;BMP280;15077;49.704;9.908;2022-10-31T06:19:42;98604.94;;;15.98
27826;BMP280;15077;49.704;9.908;2022-10-31T06:22:08;98608.22;;;16.00
27826;BMP280;15077;49.704;9.908;2022-10-31T06:24:33;98617.63;;;15.99
27826;BMP280;15077;49.704;9.908;2022-10-31T06:26:59;98613.31;;;16.00
27826;BMP280;15077;49.704;9.908;2022-10-31T06:29:25;98608.22;;;16.00
27826;BMP280;15077;49.704;9.908;2022-10-31T06:31:51;98615.81;;;16.01
27826;BMP280;15077;49.704;9.908;2022-10-31T06:34:17;98621.69;;;16.03
27826;BMP280;15077;49.704;9.908;2022-10-31T06:36:42;98613.25;;;16.01
27826;BMP280;15077;49.704;9.908;2022-10-31T06:39:08;98621.25;;;15.95
27826;BMP280;15077;49.704;9.908;2022-10-31T06:41:33;98620.69;;;15.90
27826;BMP280;15077;49.704;9.908;2022-10-31T06:43:59;98619.19;;;15.86
27826;BMP280;15077;49.704;9.908;2022-10-31T06:46:27;98621.91;;;15.83
27826;BMP280;15077;49.704;9.908;2022-10-31T06:48:53;98621.91;;;15.83
27826;BMP280;15077;49.704;9.908;2022-10-31T06:51:18;98623.72;;;15.81
27826;BMP280;15077;49.704;9.908;2022-10-31T06:53:44;98625.53;;;15.79
27826;BMP280;15077;49.704;9.908;2022-10-31T06:56:10;98635.84;;;15.78
27826;BMP280;15077;49.704;9.908;2022-10-31T06:58:35;98630.81;;;15.76
27826;BMP280;15077;49.704;9.908;2022-10-31T07:01:01;98630.81;;;15.76
27826;BMP280;15077;49.704;9.908;2022-10-31T07:03:27;98629.16;;;15.75
27826;BMP280;15077;49.704;9.908;2022-10-31T07:05:55;98629.16;;;15.75
27826;BMP280;15077;49.704;9.908;2022-10-31T07:08:22;98630.06;;;15.74
27826;BMP280;15077;49.704;9.908;2022-10-31T07:10:53;98630.06;;;15.74
27826;BMP280;15077;49.704;9.908;2022-10-31T07:13:19;98636.91;;;15.74
27826;BMP280;15077;49.704;9.908;2022-10-31T07:15:50;98630.97;;;15.73
27826;BMP280;15077;49.704;9.908;2022-10-31T07:18:16;98625.88;;;15.73
27826;BMP280;15077;49.704;9.908;2022-10-31T07:20:41;98629.31;;;15.72
27826;BMP280;15077;49.704;9.908;2022-10-31T07:23:12;98617.44;;;15.71
27826;BMP280;15077;49.704;9.908;2022-10-31T07:25:38;98627.75;;;15.70
27826;BMP280;15077;49.704;9.908;2022-10-31T07:28:05;98634.59;;;15.69
27826;BMP280;15077;49.704;9.908;2022-10-31T07:30:30;98632.13;;;15.68
27826;BMP280;15077;49.704;9.908;2022-10-31T07:32:56;98638.03;;;15.68
27826;BMP280;15077;49.704;9.908;2022-10-31T07:35:27;98628.75;;;15.67
27826;BMP280;15077;49.704;9.908;2022-10-31T07:37:53;98632.94;;;15.68
27826;BMP280;15077;49.704;9.908;2022-10-31T07:40:21;98625.34;;;15.67
27826;BMP280;15077;49.704;9.908;2022-10-31T07:42:49;98637.31;;;15.66
27826;BMP280;15077;49.704;9.908;2022-10-31T07:45:19;98639.88;;;15.66
27826;BMP280;15077;49.704;9.908;2022-10-31T07:47:47;98625.34;;;15.67
27826;BMP280;15077;49.704;9.908;2022-10-31T07:50:17;98627.97;;;15.65
27826;BMP280;15077;49.704;9.908;2022-10-31T07:52:44;98637.31;;;15.66
27826;BMP280;15077;49.704;9.908;2022-10-31T07:55:10;98623.63;;;15.67
27826;BMP280;15077;49.704;9.908;2022-10-31T07:57:36;98629.47;;;15.69
27826;BMP280;15077;49.704;9.908;2022-10-31T08:00:06;98634.44;;;15.72
27826;BMP280;15077;49.704;9.908;2022-10-31T08:02:32;98630.06;;;15.74
27826;BMP280;15077;49.704;9.908;2022-10-31T08:04:57;98631.56;;;15.78
27826;BMP280;15077;49.704;9.908;2022-10-31T08:07:25;98634.84;;;15.80
27826;BMP280;15077;49.704;9.908;2022-10-31T08:09:51;98635.59;;;15.82
27826;BMP280;15077;49.704;9.908;2022-10-31T08:12:17;98636.25;;;15.86
27826;BMP280;15077;49.704;9.908;2022-10-31T08:14:43;98637.06;;;15.86
27826;BMP280;15077;49.704;9.908;2022-10-31T08:17:10;98636.09;;;15.89
27826;BMP280;15077;49.704;9.908;2022-10-31T08:19:35;98640.31;;;15.90
27826;BMP280;15077;49.704;9.908;2022-10-31T08:22:01;98634.28;;;15.91
27826;BMP280;15077;49.704;9.908;2022-10-31T08:24:27;98630.00;;;15.91
27826;BMP280;15077;49.704;9.908;2022-10-31T08:26:52;98638.41;;;15.93
27826;BMP280;15077;49.704;9.908;2022-10-31T08:29:18;98638.31;;;15.95
27826;BMP280;15077;49.704;9.908;2022-10-31T08:31:44;98639.13;;;15.95
27826;BMP280;15077;49.704;9.908;2022-10-31T08:34:09;98627.19;;;15.96
27826;BMP280;15077;49.704;9.908;2022-10-31T08:36:35;98638.25;;;15.96
27826;BMP280;15077;49.704;9.908;2022-10-31T08:39:01;98632.22;;;15.97
27826;BMP280;15077;49.704;9.908;2022-10-31T08:41:27;98634.63;;;16.00
27826;BMP280;15077;49.704;9.908;2022-10-31T08:43:53;98627.69;;;16.02
27826;BMP280;15077;49.704;9.908;2022-10-31T08:46:19;98635.19;;;16.05
27826;BMP280;15077;49.704;9.908;2022-10-31T08:48:47;98624.81;;;16.08
27826;BMP280;15077;49.704;9.908;2022-10-31T08:51:13;98629.03;;;16.09
27826;BMP280;15077;49.704;9.908;2022-10-31T08:53:39;98632.31;;;16.11
27826;BMP280;15077;49.704;9.908;2022-10-31T08:56:04;98624.47;;;16.14
27826;BMP280;15077;49.704;9.908;2022-10-31T08:58:30;98621.75;;;16.17
27826;BMP280;15077;49.704;9.908;2022-10-31T09:00:59;98614.84;;;16.19
27826;BMP280;15077;49.704;9.908;2022-10-31T09:03:27;98613.75;;;16.23
27826;BMP280;15077;49.704;9.908;2022-10-31T09:06:00;98620.28;;;16.28
27826;BMP280;15077;49.704;9.908;2022-10-31T09:08:26;98615.00;;;16.31
27826;BMP280;15077;49.704;9.908;2022-10-31T09:10:56;98618.22;;;16.35
27826;BMP280;15077;49.704;9.908;2022-10-31T09:13:21;98616.31;;;16.38
27826;BMP280;15077;49.704;9.908;2022-10-31T09:15:49;98613.59;;;16.41
27826;BMP280;15077;49.704;9.908;2022-10-31T09:18:17;98621.09;;;16.44
27826;BMP280;15077;49.704;9.908;2022-10-31T09:20:44;98615.81;;;16.47
27826;BMP280;15077;49.704;9.908;2022-10-31T09:23:18;98613.91;;;16.51
27826;BMP280;15077;49.704;9.908;2022-10-31T09:25:44;98609.50;;;16.52
27826;BMP280;15077;49.704;9.908;2022-10-31T09:28:12;98610.28;;;16.54
27826;BMP280;15077;49.704;9.908;2022-10-31T09:30:38;98609.16;;;16.58
27826;BMP280;15077;49.704;9.908;2022-10-31T09:33:07;98606.47;;;16.61
27826;BMP280;15077;49.704;9.908;2022-10-31T09:35:34;98612.31;;;16.63
27826;BMP280;15077;49.704;9.908;2022-10-31T09:38:01;98607.84;;;16.67
27826;BMP280;15077;49.704;9.908;2022-10-31T09:40:38;98603.38;;;16.70
27826;BMP280;15077;49.704;9.908;2022-10-31T09:43:34;98600.75;;;16.72
27826;BMP280;15077;49.704;9.908;2022-10-31T09:51:13;98607.41;;;16.74
27826;BMP280;15077;49.704;9.908;2022-10-31T09:56:09;98599.44;;;16.79
27826;BMP280;15077;49.704;9.908;2022-10-31T09:58:43;98599.28;;;16.82
27826;BMP280;15077;49.704;9.908;2022-10-31T10:01:21;98599.09;;;16.85
27826;BMP280;15077;49.704;9.908;2022-10-31T10:03:50;98595.56;;;16.87
27826;BMP280;15077;49.704;9.908;2022-10-31T10:06:23;98606.44;;;16.91
27826;BMP280;15077;49.704;9.908;2022-10-31T10:08:50;98597.94;;;16.90
27826;BMP280;15077;49.704;9.908;2022-10-31T10:22:10;98605.25;;;16.96
27826;BMP280;15077;49.704;9.908;2022-10-31T10:32:54;98599.25;;;16.97
27826;BMP280;15077;49.704;9.908;2022-10-31T10:40:44;98586.44;;;16.97
27826;BMP280;15077;49.704;9.908;2022-10-31T10:43:49;98586.34;;;16.99
27826;BMP280;15077;49.704;9.908;2022-10-31T10:52:13;98569.94;;;17.01
27826;BMP280;15077;49.704;9.908;2022-10-31T11:00:25;98572.00;;;17.10
27826;BMP280;15077;49.704;9.908;2022-10-31T11:02:53;98563.38;;;17.11
27826;BMP280;15077;49.704;9.908;2022-10-31T11:05:28;98564.22;;;17.11
27826;BMP280;15077;49.704;9.908;2022-10-31T11:07:55;98557.28;;;17.13
27826;BMP280;15077;49.704;9.908;2022-10-31T11:10:21;98556.28;;;17.16
27826;BMP280;15077;49.704;9.908;2022-10-31T11:16:02;98551.63;;;17.22
27826;BMP280;15077;49.704;9.908;2022-10-31T11:18:34;98543.84;;;17.24
27826;BMP280;15077;49.704;9.908;2022-10-31T11:21:01;98542.84;;;17.26
27826;BMP280;15077;49.704;9.908;2022-10-31T11:23:29;98538.44;;;17.28
27826;BMP280;15077;49.704;9.908;2022-10-31T11:26:04;98539.09;;;17.32
27826;BMP280;15077;49.704;9.908;2022-10-31T11:28:31;98535.44;;;17.36
27826;BMP280;15077;49.704;9.908;2022-10-31T11:31:26;98528.47;;;17.38
27826;BMP280;15077;49.704;9.908;2022-10-31T11:34:04;98530.84;;;17.41
27826;BMP280;15077;49.704;9.908;2022-10-31T11:36:33;98524.72;;;17.43
27826;BMP280;15077;49.704;9.908;2022-10-31T11:39:02;98521.06;;;17.47
27826;BMP280;15077;49.704;9.908;2022-10-31T11:41:33;98526.81;;;17.50
27826;BMP280;15077;49.704;9.908;2022-10-31T11:44:01;98524.81;;;17.55
27826;BMP280;15077;49.704;9.908;2022-10-31T11:46:35;98514.28;;;17.60
27826;BMP280;15077;49.704;9.908;2022-10-31T11:49:01;98503.81;;;17.63
27826;BMP280;15077;49.704;9.908;2022-10-31T11:51:37;98500.22;;;17.65
27826;BMP280;15077;49.704;9.908;2022-10-31T11:54:04;98494.00;;;17.69
27826;BMP280;15077;49.704;9.908;2022-10-31T11:56:40;98489.59;;;17.71
27826;BMP280;15077;49.704;9.908;2022-10-31T11:59:17;98491.06;;;17.75
27826;BMP280;15077;49.704;9.908;2022-10-31T12:01:48;98486.63;;;17.77
27826;BMP280;15077;49.704;9.908;2022-10-31T12:04:15;98485.63;;;17.80
27826;BMP280;15077;49.704;9.908;2022-10-31T12:06:46;98475.28;;;17.81
27826;BMP280;15077;49.704;9.908;2022-10-31T12:09:20;98475.09;;;17.84
27826;BMP280;15077;49.704;9.908;2022-10-31T12:17:10;98473.97;;;17.88
27826;BMP280;15077;49.704;9.908;2022-10-31T12:28:02;98449.56;;;17.95
27826;BMP280;15077;49.704;9.908;2022-10-31T12:31:01;98452.78;;;17.98
27826;BMP280;15077;49.704;9.908;2022-10-31T12:50:14;98416.66;;;18.40
27826;BMP280;15077;49.704;9.908;2022-10-31T12:55:23;98420.16;;;18.51
27826;BMP280;15077;49.704;9.908;2022-10-31T12:58:00;98419.44;;;18.49
27826;BMP280;15077;49.704;9.908;2022-10-31T13:00:28;98402.38;;;18.48
27826;BMP280;15077;49.704;9.908;2022-10-31T13:05:39;98392.94;;;18.49
27826;BMP280;15077;49.704;9.908;2022-10-31T13:08:14;98387.00;;;18.48
27826;BMP280;15077;49.704;9.908;2022-10-31T13:10:50;98381.66;;;18.51
27826;BMP280;15077;49.704;9.908;2022-10-31T13:18:39;98376.09;;;18.57
27826;BMP280;15077;49.704;9.908;2022-10-31T13:21:15;98370.75;;;18.60
27826;BMP280;15077;49.704;9.908;2022-10-31T13:23:44;98359.56;;;18.61
27826;BMP280;15077;49.704;9.908;2022-10-31T13:26:20;98349.91;;;18.65
27826;BMP280;15077;49.704;9.908;2022-10-31T13:28:52;98347.22;;;18.66
27826;BMP280;15077;49.704;9.908;2022-10-31T13:31:20;98345.47;;;18.67
27826;BMP280;15077;49.704;9.908;2022-10-31T13:34:10;98337.66;;;18.68
27826;BMP280;15077;49.704;9.908;2022-10-31T13:45:28;98333.97;;;18.72
27826;BMP280;15077;49.704;9.908;2022-10-31T13:50:39;98330.28;;;18.76
27826;BMP280;15077;49.704;9.908;2022-10-31T13:53:12;98326.75;;;18.77
27826;BMP280;15077;49.704;9.908;2022-10-31T13:58:30;98333.34;;;18.81
27826;BMP280;15077;49.704;9.908;2022-10-31T14:01:16;98341.75;;;18.83
27826;BMP280;15077;49.704;9.908;2022-10-31T14:03:46;98327.16;;;18.84
27826;BMP280;15077;49.704;9.908;2022-10-31T14:06:12;98319.38;;;18.85
27826;BMP280;15077;49.704;9.908;2022-10-31T14:08:47;98318.31;;;18.88
27826;BMP280;15077;49.704;9.908;2022-10-31T14:11:32;98312.13;;;18.90
27826;BMP280;15077;49.704;9.908;2022-10-31T14:13:59;98319.75;;;18.92
27826;BMP280;15077;49.704;9.908;2022-10-31T14:16:30;98323.03;;;18.94
27826;BMP280;15077;49.704;9.908;2022-10-31T14:19:04;98313.56;;;18.94
27826;BMP280;15077;49.704;9.908;2022-10-31T14:21:37;98309.03;;;18.97
27826;BMP280;15077;49.704;9.908;2022-10-31T14:27:29;98296.06;;;18.99
27826;BMP280;15077;49.704;9.908;2022-10-31T14:29:49;98289.22;;;18.99
27826;BMP280;15077;49.704;9.908;2022-10-31T14:49:11;98272.56;;;19.05
27826;BMP280;15077;49.704;9.908;2022-10-31T14:51:43;98264.84;;;19.05
27826;BMP280;15077;49.704;9.908;2022-10-31T14:54:25;98267.31;;;19.06
27826;BMP280;15077;49.704;9.908;2022-10-31T14:56:56;98266.41;;;19.07
27826;BMP280;15077;49.704;9.908;2022-10-31T14:59:30;98271.41;;;19.09
27826;BMP280;15077;49.704;9.908;2022-10-31T15:01:59;98271.31;;;19.10
27826;BMP280;15077;49.704;9.908;2022-10-31T15:04:28;98263.59;;;19.10
27826;BMP280;15077;49.704;9.908;2022-10-31T15:07:11;98267.72;;;19.13
27826;BMP280;15077;49.704;9.908;2022-10-31T15:09:39;98261.72;;;19.12
27826;BMP280;15077;49.704;9.908;2022-10-31T15:12:31;98261.72;;;19.12
27826;BMP280;15077;49.704;9.908;2022-10-31T15:14:57;98262.69;;;19.11
27826;BMP280;15077;49.704;9.908;2022-10-31T15:17:26;98260.00;;;19.13
27826;BMP280;15077;49.704;9.908;2022-10-31T15:19:52;98241.19;;;19.12
27826;BMP280;15077;49.704;9.908;2022-10-31T15:22:21;98243.75;;;19.12
27826;BMP280;15077;49.704;9.908;2022-10-31T15:24:48;98242.03;;;19.13
27826;BMP280;15077;49.704;9.908;2022-10-31T15:27:16;98241.91;;;19.14
27826;BMP280;15077;49.704;9.908;2022-10-31T15:29:54;98245.28;;;19.15
27826;BMP280;15077;49.704;9.908;2022-10-31T15:32:27;98242.50;;;19.18
27826;BMP280;15077;49.704;9.908;2022-10-31T15:34:56;98251.84;;;19.19
27826;BMP280;15077;49.704;9.908;2022-10-31T15:37:25;98250.78;;;19.21
27826;BMP280;15077;49.704;9.908;2022-10-31T15:39:51;98243.81;;;19.23
27826;BMP280;15077;49.704;9.908;2022-10-31T15:42:21;98246.28;;;19.25
27826;BMP280;15077;49.704;9.908;2022-10-31T15:44:59;98243.59;;;19.26
27826;BMP280;15077;49.704;9.908;2022-10-31T15:47:25;98250.34;;;19.27
27826;BMP280;15077;49.704;9.908;2022-10-31T15:49:54;98246.84;;;19.28
27826;BMP280;15077;49.704;9.908;2022-10-31T15:52:30;98257.03;;;19.30
27826;BMP280;15077;49.704;9.908;2022-10-31T15:55:02;98266.59;;;19.28
27826;BMP280;15077;49.704;9.908;2022-10-31T15:57:28;98265.28;;;19.22
27826;BMP280;15077;49.704;9.908;2022-10-31T15:59:55;98258.63;;;19.20
27826;BMP280;15077;49.704;9.908;2022-10-31T16:02:25;98253.69;;;19.17
27826;BMP280;15077;49.704;9.908;2022-10-31T16:04:57;98255.47;;;19.16
27826;BMP280;15077;49.704;9.908;2022-10-31T16:07:23;98253.81;;;19.15
27826;BMP280;15077;49.704;9.908;2022-10-31T16:09:57;98252.06;;;19.16
27826;BMP280;15077;49.704;9.908;2022-10-31T16:12:25;98249.63;;;19.14
27826;BMP280;15077;49.704;9.908;2022-10-31T16:14:54;98244.47;;;19.14
27826;BMP280;15077;49.704;9.908;2022-10-31T16:17:22;98249.28;;;19.19
27826;BMP280;15077;49.704;9.908;2022-10-31T16:20:01;98236.78;;;19.25
27826;BMP280;15077;49.704;9.908;2022-10-31T16:22:34;98233.91;;;19.30
27826;BMP280;15077;49.704;9.908;2022-10-31T16:25:12;98226.88;;;19.32
27826;BMP280;15077;49.704;9.908;2022-10-31T16:27:39;98225.03;;;19.34
27826;BMP280;15077;49.704;9.908;2022-10-31T16:30:38;98229.97;;;19.37
27826;BMP280;15077;49.704;9.908;2022-10-31T16:33:20;98223.16;;;19.36
27826;BMP280;15077;49.704;9.908;2022-10-31T16:35:46;98231.78;;;19.35
27826;BMP280;15077;49.704;9.908;2022-10-31T16:38:13;98222.34;;;19.35
27826;BMP280;15077;49.704;9.908;2022-10-31T16:40:39;98225.84;;;19.34
27826;BMP280;15077;49.704;9.908;2022-10-31T16:43:05;98233.66;;;19.33
27826;BMP280;15077;49.704;9.908;2022-10-31T16:45:34;98239.03;;;19.30
27826;BMP280;15077;49.704;9.908;2022-10-31T16:48:05;98243.59;;;19.26
27826;BMP280;15077;49.704;9.908;2022-10-31T16:50:32;98232.59;;;19.24
27826;BMP280;15077;49.704;9.908;2022-10-31T16:52:58;98239.69;;;19.21